sensor_id;sensor_type;location;lat;lon;timestamp;temperature;humidity
48752;DHT22;34544;48.836;9.174;2023-04-15T00:01:59;4.60;99.90
48752;DHT22;34544;48.836;9.174;2023-04-15T00:04:25;4.60;99.90
48752;DHT22;34544;48.836;9.174;2023-04-15T00:06:52;4.60;99.90
48752;DHT22;34544;48.836;9.174;2023-04-15T00:09:18;4.60;99.90
48752;DHT22;34544;48.836;9.174;2023-04-15T00:11:44;4.60;99.90
48752;DHT22;34544;48.836;9.174;2023-04-15T00:14:12;4.60;99.90
48752;DHT22;34544;48.836;9.174;2023-04-15T00:16:37;4.50;99.90
48752;DHT22;34544;48.836;9.174;2023-04-15T00:19:03;4.50;99.90
48752;DHT22;34544;48.836;9.174;2023-04-15T00:21:29;4.50;99.90
48752;DHT22;34544;48.836;9.174;2023-04-15T00:23:55;4.50;99.90
48752;DHT22;34544;48.836;9.174;2023-04-15T00:26:21;4.40;99.90
48752;DHT22;34544;48.836;9.174;2023-04-15T00:28:49;4.40;99.90
48752;DHT22;34544;48.836;9.174;2023-04-15T00:31:15;4.40;99.90
48752;DHT22;34544;48.836;9.174;2023-04-15T00:33:40;4.40;99.90
48752;DHT22;34544;48.836;9.174;2023-04-15T00:36:06;4.30;99.90
48752;DHT22;34544;48.836;9.174;2023-04-15T00:38:33;4.30;99.90
48752;DHT22;34544;48.836;9.174;2023-04-15T00:40:58;4.30;99.90
48752;DHT22;34544;48.836;9.174;2023-04-15T00:43:24;4.30;99.90
48752;DHT22;34544;48.836;9.174;2023-04-15T00:45:52;4.20;99.90
48752;DHT22;34544;48.836;9.174;2023-04-15T00:48:19;4.20;99.90
48752;DHT22;34544;48.836;9.174;2023-04-15T00:50:45;4.10;99.90
48752;DHT22;34544;48.836;9.174;2023-04-15T00:53:11;4.10;99.90
48752;DHT22;34544;48.836;9.174;2023-04-15T00:55:37;4.10;99.90
48752;DHT22;34544;48.836;9.174;2023-04-15T00:58:02;4.00;99.90
48752;DHT22;34544;48.836;9.174;2023-04-15T01:00:29;4.00;99.90
48752;DHT22;34544;48.836;9.174;2023-04-15T01:02:55;4.00;99.90
48752;DHT22;34544;48.836;9.174;2023-04-15T01:05:21;4.00;99.90
48752;DHT22;34544;48.836;9.174;2023-04-15T01:07:47;4.00;99.90
48752;DHT22;34544;48.836;9.174;2023-04-15T01:12:41;3.90;99.90
48752;DHT22;34544;48.836;9.174;2023-04-15T01:15:07;3.90;99.90
48752;DHT22;34544;48.836;9.174;2023-04-15T01:17:34;3.90;99.90
48752;DHT22;34544;48.836;9.174;2023-04-15T01:19:59;3.90;99.90
48752;DHT22;34544;48.836;9.174;2023-04-15T01:22:26;3.90;99.90
48752;DHT22;34544;48.836;9.174;2023-04-15T01:25:04;3.80;99.90
48752;DHT22;34544;48.836;9.174;2023-04-15T01:27:31;3.80;99.90
48752;DHT22;34544;48.836;9.174;2023-04-15T01:29:57;3.80;99.90
48752;DHT22;34544;48.836;9.174;2023-04-15T01:32:23;3.70;99.90
48752;DHT22;34544;48.836;9.174;2023-04-15T01:34:50;3.70;99.90
48752;DHT22;34544;48.836;9.174;2023-04-15T01:39:42;3.60;99.90
48752;DHT22;34544;48.836;9.174;2023-04-15T01:42:09;3.60;99.90
48752;DHT22;34544;48.836;9.174;2023-04-15T01:44:34;3.60;99.90
48752;DHT22;34544;48.836;9.174;2023-04-15T01:47:00;3.50;99.90
48752;DHT22;34544;48.836;9.174;2023-04-15T01:49:26;3.50;99.90
48752;DHT22;34544;48.836;9.174;2023-04-15T01:51:52;3.50;99.90
48752;DHT22;34544;48.836;9.174;2023-04-15T01:54:18;3.50;99.90
48752;DHT22;34544;48.836;9.174;2023-04-15T01:56:44;3.40;99.90
48752;DHT22;34544;48.836;9.174;2023-04-15T01:59:10;3.40;99.90
48752;DHT22;34544;48.836;9.174;2023-04-15T02:01:37;3.40;99.90
48752;DHT22;34544;48.836;9.174;2023-04-15T02:04:02;3.40;99.90
48752;DHT22;34544;48.836;9.174;2023-04-15T02:11:23;3.30;99.90
48752;DHT22;34544;48.836;9.174;2023-04-15T02:13:49;3.30;99.90
48752;DHT22;34544;48.836;9.174;2023-04-15T02:16:16;3.30;99.90
48752;DHT22;34544;48.836;9.174;2023-04-15T02:18:45;3.30;99.90
48752;DHT22;34544;48.836;9.174;2023-04-15T02:21:12;3.30;99.90
48752;DHT22;34544;48.836;9.174;2023-04-15T02:23:38;3.30;99.90
48752;DHT22;34544;48.836;9.174;2023-04-15T02:26:03;3.30;99.90
48752;DHT22;34544;48.836;9.174;2023-04-15T02:28:30;3.30;99.90
48752;DHT22;34544;48.836;9.174;2023-04-15T02:30:57;3.30;99.90
48752;DHT22;34544;48.836;9.174;2023-04-15T02:33:24;3.30;99.90
48752;DHT22;34544;48.836;9.174;2023-04-15T02:35:50;3.30;99.90
48752;DHT22;34544;48.836;9.174;2023-04-15T02:38:16;3.30;99.90
48752;DHT22;34544;48.836;9.174;2023-04-15T02:40:42;3.30;99.90
48752;DHT22;34544;48.836;9.174;2023-04-15T02:43:08;3.30;99.90
48752;DHT22;34544;48.836;9.174;2023-04-15T02:45:34;3.20;99.90
48752;DHT22;34544;48.836;9.174;2023-04-15T02:48:02;3.30;99.90
48752;DHT22;34544;48.836;9.174;2023-04-15T02:50:30;3.20;99.90
48752;DHT22;34544;48.836;9.174;2023-04-15T02:52:56;3.20;99.90
48752;DHT22;34544;48.836;9.174;2023-04-15T02:55:22;3.20;99.90
48752;DHT22;34544;48.836;9.174;2023-04-15T02:57:48;3.20;99.90
48752;DHT22;34544;48.836;9.174;2023-04-15T03:00:13;3.10;99.90
48752;DHT22;34544;48.836;9.174;2023-04-15T03:02:41;3.10;99.90
48752;DHT22;34544;48.836;9.174;2023-04-15T03:05:11;3.10;99.90
48752;DHT22;34544;48.836;9.174;2023-04-15T03:07:38;3.10;99.90
48752;DHT22;34544;48.836;9.174;2023-04-15T03:10:06;3.00;99.90
48752;DHT22;34544;48.836;9.174;2023-04-15T03:12:32;3.00;99.90
48752;DHT22;34544;48.836;9.174;2023-04-15T03:14:58;3.00;99.90
48752;DHT22;34544;48.836;9.174;2023-04-15T03:17:32;2.90;99.90
48752;DHT22;34544;48.836;9.174;2023-04-15T03:19:59;2.90;99.90
48752;DHT22;34544;48.836;9.174;2023-04-15T03:22:27;2.90;99.90
48752;DHT22;34544;48.836;9.174;2023-04-15T03:24:53;2.90;99.90
48752;DHT22;34544;48.836;9.174;2023-04-15T03:27:19;2.90;99.90
48752;DHT22;34544;48.836;9.174;2023-04-15T03:29:46;2.90;99.90
48752;DHT22;34544;48.836;9.174;2023-04-15T03:32:13;2.90;99.90
48752;DHT22;34544;48.836;9.174;2023-04-15T03:34:40;2.90;99.90
48752;DHT22;34544;48.836;9.174;2023-04-15T03:37:06;2.90;99.90
48752;DHT22;34544;48.836;9.174;2023-04-15T03:39:33;2.90;99.90
48752;DHT22;34544;48.836;9.174;2023-04-15T03:41:59;2.90;99.90
48752;DHT22;34544;48.836;9.174;2023-04-15T03:44:27;2.90;99.90
48752;DHT22;34544;48.836;9.174;2023-04-15T03:46:53;2.90;99.90
48752;DHT22;34544;48.836;9.174;2023-04-15T03:49:19;2.90;99.90
48752;DHT22;34544;48.836;9.174;2023-04-15T03:51:45;2.90;99.90
48752;DHT22;34544;48.836;9.174;2023-04-15T03:54:11;2.90;99.90
48752;DHT22;34544;48.836;9.174;2023-04-15T03:56:39;2.90;99.90
48752;DHT22;34544;48.836;9.174;2023-04-15T03:59:05;2.90;99.90
48752;DHT22;34544;48.836;9.174;2023-04-15T04:01:31;2.90;99.90
48752;DHT22;34544;48.836;9.174;2023-04-15T04:03:56;2.90;99.90
48752;DHT22;34544;48.836;9.174;2023-04-15T04:06:22;2.90;99.90
48752;DHT22;34544;48.836;9.174;2023-04-15T04:08:48;2.90;99.90
48752;DHT22;34544;48.836;9.174;2023-04-15T04:11:13;2.90;99.90
48752;DHT22;34544;48.836;9.174;2023-04-15T04:13:39;2.80;99.90
48752;DHT22;34544;48.836;9.174;2023-04-15T04:16:05;2.80;99.90
48752;DHT22;34544;48.836;9.174;2023-04-15T04:18:32;2.80;99.90
48752;DHT22;34544;48.836;9.174;2023-04-15T04:20:58;2.80;99.90
48752;DHT22;34544;48.836;9.174;2023-04-15T04:23:24;2.80;99.90
48752;DHT22;34544;48.836;9.174;2023-04-15T04:25:49;2.80;99.90
48752;DHT22;34544;48.836;9.174;2023-04-15T04:28:15;2.70;99.90
48752;DHT22;34544;48.836;9.174;2023-04-15T04:30:41;2.70;99.90
48752;DHT22;34544;48.836;9.174;2023-04-15T04:33:07;2.70;99.90
48752;DHT22;34544;48.836;9.174;2023-04-15T04:35:32;2.70;99.90
48752;DHT22;34544;48.836;9.174;2023-04-15T04:38:00;2.70;99.90
48752;DHT22;34544;48.836;9.174;2023-04-15T04:40:25;2.70;99.90
48752;DHT22;34544;48.836;9.174;2023-04-15T04:42:52;2.70;99.90
48752;DHT22;34544;48.836;9.174;2023-04-15T04:45:18;2.70;99.90
48752;DHT22;34544;48.836;9.174;2023-04-15T04:47:44;2.70;99.90
48752;DHT22;34544;48.836;9.174;2023-04-15T04:50:09;2.70;99.90
48752;DHT22;34544;48.836;9.174;2023-04-15T04:52:36;2.70;99.90
48752;DHT22;34544;48.836;9.174;2023-04-15T04:55:02;2.70;99.90
48752;DHT22;34544;48.836;9.174;2023-04-15T04:57:27;2.70;99.90
48752;DHT22;34544;48.836;9.174;2023-04-15T04:59:53;2.70;99.90
48752;DHT22;34544;48.836;9.174;2023-04-15T05:02:18;2.60;99.90
48752;DHT22;34544;48.836;9.174;2023-04-15T05:04:44;2.70;99.90
48752;DHT22;34544;48.836;9.174;2023-04-15T05:07:10;2.70;99.90
48752;DHT22;34544;48.836;9.174;2023-04-15T05:09:35;2.70;99.90
48752;DHT22;34544;48.836;9.174;2023-04-15T05:12:05;2.70;99.90
48752;DHT22;34544;48.836;9.174;2023-04-15T05:14:30;2.70;99.90
48752;DHT22;34544;48.836;9.174;2023-04-15T05:16:56;2.70;99.90
48752;DHT22;34544;48.836;9.174;2023-04-15T05:19:22;2.70;99.90
48752;DHT22;34544;48.836;9.174;2023-04-15T05:21:48;2.80;99.90
48752;DHT22;34544;48.836;9.174;2023-04-15T05:24:13;2.80;99.90
48752;DHT22;34544;48.836;9.174;2023-04-15T05:26:39;2.80;99.90
48752;DHT22;34544;48.836;9.174;2023-04-15T05:29:05;2.90;99.90
48752;DHT22;34544;48.836;9.174;2023-04-15T05:31:31;3.00;99.90
48752;DHT22;34544;48.836;9.174;2023-04-15T05:33:57;3.00;99.90
48752;DHT22;34544;48.836;9.174;2023-04-15T05:36:22;3.10;99.90
48752;DHT22;34544;48.836;9.174;2023-04-15T05:38:48;3.20;99.90
48752;DHT22;34544;48.836;9.174;2023-04-15T05:41:14;3.30;99.90
48752;DHT22;34544;48.836;9.174;2023-04-15T05:43:40;3.30;99.90
48752;DHT22;34544;48.836;9.174;2023-04-15T05:46:06;3.40;99.90
48752;DHT22;34544;48.836;9.174;2023-04-15T05:48:33;3.50;99.90
48752;DHT22;34544;48.836;9.174;2023-04-15T05:50:59;3.60;99.90
48752;DHT22;34544;48.836;9.174;2023-04-15T05:53:25;3.80;99.90
48752;DHT22;34544;48.836;9.174;2023-04-15T05:55:51;3.90;99.90
48752;DHT22;34544;48.836;9.174;2023-04-15T05:58:16;4.00;99.90
48752;DHT22;34544;48.836;9.174;2023-04-15T06:00:42;4.20;99.90
48752;DHT22;34544;48.836;9.174;2023-04-15T06:03:09;4.40;99.90
48752;DHT22;34544;48.836;9.174;2023-04-15T06:05:36;4.50;99.90
48752;DHT22;34544;48.836;9.174;2023-04-15T06:08:01;4.70;99.90
48752;DHT22;34544;48.836;9.174;2023-04-15T06:10:27;4.80;99.90
48752;DHT22;34544;48.836;9.174;2023-04-15T06:12:53;4.90;99.90
48752;DHT22;34544;48.836;9.174;2023-04-15T06:15:18;5.00;99.90
48752;DHT22;34544;48.836;9.174;2023-04-15T06:17:44;5.10;99.90
48752;DHT22;34544;48.836;9.174;2023-04-15T06:20:11;5.30;99.90
48752;DHT22;34544;48.836;9.174;2023-04-15T06:22:37;5.50;99.90
48752;DHT22;34544;48.836;9.174;2023-04-15T06:25:06;5.60;99.90
48752;DHT22;34544;48.836;9.174;2023-04-15T06:27:33;5.80;99.90
48752;DHT22;34544;48.836;9.174;2023-04-15T06:29:58;5.90;99.90
48752;DHT22;34544;48.836;9.174;2023-04-15T06:32:24;6.10;99.90
48752;DHT22;34544;48.836;9.174;2023-04-15T06:34:50;6.20;99.90
48752;DHT22;34544;48.836;9.174;2023-04-15T06:37:15;6.40;99.90
48752;DHT22;34544;48.836;9.174;2023-04-15T06:39:41;6.60;99.90
48752;DHT22;34544;48.836;9.174;2023-04-15T06:42:09;6.80;99.90
48752;DHT22;34544;48.836;9.174;2023-04-15T06:47:01;7.20;99.90
48752;DHT22;34544;48.836;9.174;2023-04-15T06:49:27;7.40;99.90
48752;DHT22;34544;48.836;9.174;2023-04-15T06:51:53;7.40;99.90
48752;DHT22;34544;48.836;9.174;2023-04-15T06:54:18;7.50;99.90
48752;DHT22;34544;48.836;9.174;2023-04-15T06:56:44;7.70;99.90
48752;DHT22;34544;48.836;9.174;2023-04-15T06:59:10;8.00;99.90
48752;DHT22;34544;48.836;9.174;2023-04-15T07:01:35;8.20;99.90
48752;DHT22;34544;48.836;9.174;2023-04-15T07:04:01;8.40;99.90
48752;DHT22;34544;48.836;9.174;2023-04-15T07:06:27;8.50;99.90
48752;DHT22;34544;48.836;9.174;2023-04-15T07:08:53;8.70;99.90
48752;DHT22;34544;48.836;9.174;2023-04-15T07:11:19;9.00;99.90
48752;DHT22;34544;48.836;9.174;2023-04-15T07:13:45;9.20;99.90
48752;DHT22;34544;48.836;9.174;2023-04-15T07:16:11;9.40;99.90
48752;DHT22;34544;48.836;9.174;2023-04-15T07:18:37;9.60;99.90
48752;DHT22;34544;48.836;9.174;2023-04-15T07:21:03;9.70;99.90
48752;DHT22;34544;48.836;9.174;2023-04-15T07:23:28;9.70;99.90
48752;DHT22;34544;48.836;9.174;2023-04-15T07:25:54;9.70;99.90
48752;DHT22;34544;48.836;9.174;2023-04-15T07:28:20;9.70;99.90
48752;DHT22;34544;48.836;9.174;2023-04-15T07:30:45;9.60;99.90
48752;DHT22;34544;48.836;9.174;2023-04-15T07:33:11;9.60;99.90
48752;DHT22;34544;48.836;9.174;2023-04-15T07:35:37;9.70;99.90
48752;DHT22;34544;48.836;9.174;2023-04-15T07:38:02;9.70;99.90
48752;DHT22;34544;48.836;9.174;2023-04-15T07:40:28;9.80;99.90
48752;DHT22;34544;48.836;9.174;2023-04-15T07:42:55;9.90;99.90
48752;DHT22;34544;48.836;9.174;2023-04-15T07:45:23;10.10;99.90
48752;DHT22;34544;48.836;9.174;2023-04-15T07:47:48;10.50;99.90
48752;DHT22;34544;48.836;9.174;2023-04-15T07:50:15;10.80;99.90
48752;DHT22;34544;48.836;9.174;2023-04-15T07:55:09;11.40;99.90
48752;DHT22;34544;48.836;9.174;2023-04-15T07:57:35;11.80;99.90
48752;DHT22;34544;48.836;9.174;2023-04-15T08:00:01;12.10;99.90
48752;DHT22;34544;48.836;9.174;2023-04-15T08:02:38;12.40;99.90
48752;DHT22;34544;48.836;9.174;2023-04-15T08:05:04;12.80;99.90
48752;DHT22;34544;48.836;9.174;2023-04-15T08:07:30;13.30;99.90
48752;DHT22;34544;48.836;9.174;2023-04-15T08:09:56;13.50;99.90
48752;DHT22;34544;48.836;9.174;2023-04-15T08:12:22;14.00;99.90
48752;DHT22;34544;48.836;9.174;2023-04-15T08:14:52;14.30;99.90
48752;DHT22;34544;48.836;9.174;2023-04-15T08:17:17;14.40;99.90
48752;DHT22;34544;48.836;9.174;2023-04-15T08:19:43;14.70;99.90
48752;DHT22;34544;48.836;9.174;2023-04-15T08:22:09;14.60;99.90
48752;DHT22;34544;48.836;9.174;2023-04-15T08:24:36;14.80;99.90
48752;DHT22;34544;48.836;9.174;2023-04-15T08:27:03;14.80;99.90
48752;DHT22;34544;48.836;9.174;2023-04-15T08:29:33;14.90;99.90
48752;DHT22;34544;48.836;9.174;2023-04-15T08:31:59;14.90;99.90
48752;DHT22;34544;48.836;9.174;2023-04-15T08:34:26;14.80;99.90
48752;DHT22;34544;48.836;9.174;2023-04-15T08:36:52;14.70;99.90
48752;DHT22;34544;48.836;9.174;2023-04-15T08:39:18;15.00;99.90
48752;DHT22;34544;48.836;9.174;2023-04-15T08:41:51;15.30;99.90
48752;DHT22;34544;48.836;9.174;2023-04-15T08:44:19;15.80;99.90
48752;DHT22;34544;48.836;9.174;2023-04-15T08:46:45;16.40;99.90
48752;DHT22;34544;48.836;9.174;2023-04-15T08:49:12;16.90;99.90
48752;DHT22;34544;48.836;9.174;2023-04-15T08:51:39;17.20;99.90
48752;DHT22;34544;48.836;9.174;2023-04-15T08:54:07;17.50;99.50
48752;DHT22;34544;48.836;9.174;2023-04-15T08:56:33;17.60;99.30
48752;DHT22;34544;48.836;9.174;2023-04-15T08:58:59;17.80;99.30
48752;DHT22;34544;48.836;9.174;2023-04-15T09:01:25;17.90;98.80
48752;DHT22;34544;48.836;9.174;2023-04-15T09:03:51;17.90;98.40
48752;DHT22;34544;48.836;9.174;2023-04-15T09:06:21;18.00;99.00
48752;DHT22;34544;48.836;9.174;2023-04-15T09:08:48;18.30;99.00
48752;DHT22;34544;48.836;9.174;2023-04-15T09:11:14;18.60;97.80
48752;DHT22;34544;48.836;9.174;2023-04-15T09:13:39;18.80;97.80
48752;DHT22;34544;48.836;9.174;2023-04-15T09:16:06;18.90;97.20
48752;DHT22;34544;48.836;9.174;2023-04-15T09:18:34;19.00;97.00
48752;DHT22;34544;48.836;9.174;2023-04-15T09:21:07;19.30;96.90
48752;DHT22;34544;48.836;9.174;2023-04-15T09:23:41;19.60;97.00
48752;DHT22;34544;48.836;9.174;2023-04-15T09:26:18;19.50;95.20
48752;DHT22;34544;48.836;9.174;2023-04-15T09:28:43;19.50;95.50
48752;DHT22;34544;48.836;9.174;2023-04-15T09:31:09;19.30;95.40
48752;DHT22;34544;48.836;9.174;2023-04-15T09:33:35;19.20;95.50
48752;DHT22;34544;48.836;9.174;2023-04-15T09:36:18;19.10;93.80
48752;DHT22;34544;48.836;9.174;2023-04-15T09:38:58;19.00;94.80
48752;DHT22;34544;48.836;9.174;2023-04-15T09:41:25;19.00;94.10
48752;DHT22;34544;48.836;9.174;2023-04-15T09:43:50;18.80;93.40
48752;DHT22;34544;48.836;9.174;2023-04-15T09:46:16;18.50;93.80
48752;DHT22;34544;48.836;9.174;2023-04-15T09:48:42;18.30;94.20
48752;DHT22;34544;48.836;9.174;2023-04-15T09:51:07;18.00;94.60
48752;DHT22;34544;48.836;9.174;2023-04-15T09:53:35;17.80;94.60
48752;DHT22;34544;48.836;9.174;2023-04-15T09:56:01;17.60;94.70
48752;DHT22;34544;48.836;9.174;2023-04-15T09:58:29;17.50;94.80
48752;DHT22;34544;48.836;9.174;2023-04-15T10:00:56;17.60;95.20
48752;DHT22;34544;48.836;9.174;2023-04-15T10:03:24;17.50;95.00
48752;DHT22;34544;48.836;9.174;2023-04-15T10:05:55;17.50;95.10
48752;DHT22;34544;48.836;9.174;2023-04-15T10:08:23;17.50;95.60
48752;DHT22;34544;48.836;9.174;2023-04-15T10:10:50;17.60;94.80
48752;DHT22;34544;48.836;9.174;2023-04-15T10:13:21;17.60;95.40
48752;DHT22;34544;48.836;9.174;2023-04-15T10:15:57;17.50;95.20
48752;DHT22;34544;48.836;9.174;2023-04-15T10:18:25;17.40;95.80
48752;DHT22;34544;48.836;9.174;2023-04-15T10:20:52;17.60;95.40
48752;DHT22;34544;48.836;9.174;2023-04-15T10:23:19;17.80;95.90
48752;DHT22;34544;48.836;9.174;2023-04-15T10:25:46;18.30;95.50
48752;DHT22;34544;48.836;9.174;2023-04-15T10:28:12;18.90;94.40
48752;DHT22;34544;48.836;9.174;2023-04-15T10:30:39;19.20;94.50
48752;DHT22;34544;48.836;9.174;2023-04-15T10:33:05;19.60;93.80
48752;DHT22;34544;48.836;9.174;2023-04-15T10:35:32;20.10;93.60
48752;DHT22;34544;48.836;9.174;2023-04-15T10:37:58;20.10;92.40
48752;DHT22;34544;48.836;9.174;2023-04-15T10:40:25;20.40;91.30
48752;DHT22;34544;48.836;9.174;2023-04-15T10:42:53;20.50;92.20
48752;DHT22;34544;48.836;9.174;2023-04-15T10:45:19;20.50;91.50
48752;DHT22;34544;48.836;9.174;2023-04-15T10:47:45;20.50;91.30
48752;DHT22;34544;48.836;9.174;2023-04-15T10:50:18;20.20;91.00
48752;DHT22;34544;48.836;9.174;2023-04-15T10:52:43;20.20;91.40
48752;DHT22;34544;48.836;9.174;2023-04-15T10:57:37;20.30;91.40
48752;DHT22;34544;48.836;9.174;2023-04-15T11:00:17;20.40;92.00
48752;DHT22;34544;48.836;9.174;2023-04-15T11:08:07;21.00;91.60
48752;DHT22;34544;48.836;9.174;2023-04-15T11:13:15;22.30;90.40
48752;DHT22;34544;48.836;9.174;2023-04-15T11:15:46;23.00;90.10
48752;DHT22;34544;48.836;9.174;2023-04-15T11:20:48;23.90;91.90
48752;DHT22;34544;48.836;9.174;2023-04-15T11:23:26;23.70;93.30
48752;DHT22;34544;48.836;9.174;2023-04-15T11:25:54;23.50;91.70
48752;DHT22;34544;48.836;9.174;2023-04-15T11:28:28;22.80;91.00
48752;DHT22;34544;48.836;9.174;2023-04-15T11:30:54;22.60;86.20
48752;DHT22;34544;48.836;9.174;2023-04-15T11:33:20;22.10;84.50
48752;DHT22;34544;48.836;9.174;2023-04-15T11:35:47;21.20;83.40
48752;DHT22;34544;48.836;9.174;2023-04-15T11:38:14;20.50;84.80
48752;DHT22;34544;48.836;9.174;2023-04-15T11:40:41;20.00;90.30
48752;DHT22;34544;48.836;9.174;2023-04-15T11:45:36;18.70;99.90
48752;DHT22;34544;48.836;9.174;2023-04-15T11:50:31;18.20;99.90
48752;DHT22;34544;48.836;9.174;2023-04-15T11:52:59;18.40;97.80
48752;DHT22;34544;48.836;9.174;2023-04-15T11:55:25;18.70;97.90
48752;DHT22;34544;48.836;9.174;2023-04-15T11:58:12;19.00;97.40
48752;DHT22;34544;48.836;9.174;2023-04-15T12:00:39;19.50;97.40
48752;DHT22;34544;48.836;9.174;2023-04-15T12:06:23;20.00;90.90
48752;DHT22;34544;48.836;9.174;2023-04-15T12:09:13;20.10;90.40
48752;DHT22;34544;48.836;9.174;2023-04-15T12:11:47;19.60;89.20
48752;DHT22;34544;48.836;9.174;2023-04-15T12:14:42;19.20;89.50
48752;DHT22;34544;48.836;9.174;2023-04-15T12:17:09;18.70;90.80
48752;DHT22;34544;48.836;9.174;2023-04-15T12:19:40;18.20;91.20
48752;DHT22;34544;48.836;9.174;2023-04-15T12:22:15;17.80;91.60
48752;DHT22;34544;48.836;9.174;2023-04-15T12:24:42;17.00;94.00
48752;DHT22;34544;48.836;9.174;2023-04-15T12:27:12;16.40;96.10
48752;DHT22;34544;48.836;9.174;2023-04-15T12:29:40;15.60;99.90
48752;DHT22;34544;48.836;9.174;2023-04-15T12:34:35;13.80;99.90
48752;DHT22;34544;48.836;9.174;2023-04-15T12:37:03;13.10;99.90
48752;DHT22;34544;48.836;9.174;2023-04-15T12:39:31;12.60;99.90
48752;DHT22;34544;48.836;9.174;2023-04-15T12:41:59;12.20;99.90
48752;DHT22;34544;48.836;9.174;2023-04-15T12:44:26;12.00;99.90
48752;DHT22;34544;48.836;9.174;2023-04-15T12:46:52;12.00;99.90
48752;DHT22;34544;48.836;9.174;2023-04-15T12:49:20;12.00;99.90
48752;DHT22;34544;48.836;9.174;2023-04-15T12:51:50;12.10;99.90
48752;DHT22;34544;48.836;9.174;2023-04-15T12:54:17;12.30;99.90
48752;DHT22;34544;48.836;9.174;2023-04-15T12:56:45;12.50;99.90
48752;DHT22;34544;48.836;9.174;2023-04-15T12:59:12;12.70;99.90
48752;DHT22;34544;48.836;9.174;2023-04-15T13:01:38;12.90;99.90
48752;DHT22;34544;48.836;9.174;2023-04-15T13:04:04;13.10;99.90
48752;DHT22;34544;48.836;9.174;2023-04-15T13:06:30;13.30;99.90
48752;DHT22;34544;48.836;9.174;2023-04-15T13:08:58;13.50;99.90
48752;DHT22;34544;48.836;9.174;2023-04-15T13:11:24;13.70;99.90
48752;DHT22;34544;48.836;9.174;2023-04-15T13:13:50;14.10;99.90
48752;DHT22;34544;48.836;9.174;2023-04-15T13:16:19;14.00;99.90
48752;DHT22;34544;48.836;9.174;2023-04-15T13:18:47;14.00;99.90
48752;DHT22;34544;48.836;9.174;2023-04-15T13:21:13;14.10;99.90
48752;DHT22;34544;48.836;9.174;2023-04-15T13:23:40;14.00;99.90
48752;DHT22;34544;48.836;9.174;2023-04-15T13:26:06;13.90;99.90
48752;DHT22;34544;48.836;9.174;2023-04-15T13:28:31;13.80;99.90
48752;DHT22;34544;48.836;9.174;2023-04-15T13:30:57;13.80;99.90
48752;DHT22;34544;48.836;9.174;2023-04-15T13:33:23;13.80;99.90
48752;DHT22;34544;48.836;9.174;2023-04-15T13:35:48;13.90;99.90
48752;DHT22;34544;48.836;9.174;2023-04-15T13:38:14;14.00;99.90
48752;DHT22;34544;48.836;9.174;2023-04-15T13:40:39;14.10;99.90
48752;DHT22;34544;48.836;9.174;2023-04-15T13:43:05;14.30;99.90
48752;DHT22;34544;48.836;9.174;2023-04-15T13:45:31;14.50;99.90
48752;DHT22;34544;48.836;9.174;2023-04-15T13:47:56;14.60;99.90
48752;DHT22;34544;48.836;9.174;2023-04-15T13:50:22;14.70;99.90
48752;DHT22;34544;48.836;9.174;2023-04-15T13:52:48;14.60;99.20
48752;DHT22;34544;48.836;9.174;2023-04-15T13:55:14;14.50;99.90
48752;DHT22;34544;48.836;9.174;2023-04-15T13:57:39;14.40;98.90
48752;DHT22;34544;48.836;9.174;2023-04-15T14:00:06;14.20;98.90
48752;DHT22;34544;48.836;9.174;2023-04-15T14:02:32;14.10;99.70
48752;DHT22;34544;48.836;9.174;2023-04-15T14:04:57;13.90;99.40
48752;DHT22;34544;48.836;9.174;2023-04-15T14:07:23;13.80;99.70
48752;DHT22;34544;48.836;9.174;2023-04-15T14:09:49;13.70;99.90
48752;DHT22;34544;48.836;9.174;2023-04-15T14:12:14;13.70;99.90
48752;DHT22;34544;48.836;9.174;2023-04-15T14:14:40;13.70;99.90
48752;DHT22;34544;48.836;9.174;2023-04-15T14:17:06;13.60;99.80
48752;DHT22;34544;48.836;9.174;2023-04-15T14:19:33;13.60;99.70
48752;DHT22;34544;48.836;9.174;2023-04-15T14:21:59;13.60;97.80
48752;DHT22;34544;48.836;9.174;2023-04-15T14:24:24;13.50;98.60
48752;DHT22;34544;48.836;9.174;2023-04-15T14:26:50;13.40;98.60
48752;DHT22;34544;48.836;9.174;2023-04-15T14:29:16;13.40;99.50
48752;DHT22;34544;48.836;9.174;2023-04-15T14:31:42;13.30;99.00
48752;DHT22;34544;48.836;9.174;2023-04-15T14:34:10;13.30;99.80
48752;DHT22;34544;48.836;9.174;2023-04-15T14:36:35;13.20;99.50
48752;DHT22;34544;48.836;9.174;2023-04-15T14:39:02;13.20;99.60
48752;DHT22;34544;48.836;9.174;2023-04-15T14:41:29;13.10;99.00
48752;DHT22;34544;48.836;9.174;2023-04-15T14:43:54;13.10;99.50
48752;DHT22;34544;48.836;9.174;2023-04-15T14:46:21;13.00;99.20
48752;DHT22;34544;48.836;9.174;2023-04-15T14:48:47;12.90;99.80
48752;DHT22;34544;48.836;9.174;2023-04-15T14:51:12;12.80;99.90
48752;DHT22;34544;48.836;9.174;2023-04-15T14:53:38;12.70;99.90
48752;DHT22;34544;48.836;9.174;2023-04-15T14:56:04;12.60;99.90
48752;DHT22;34544;48.836;9.174;2023-04-15T14:58:30;12.50;99.90
48752;DHT22;34544;48.836;9.174;2023-04-15T15:00:57;12.50;99.90
48752;DHT22;34544;48.836;9.174;2023-04-15T15:03:23;12.40;99.90
48752;DHT22;34544;48.836;9.174;2023-04-15T15:05:48;12.30;99.90
48752;DHT22;34544;48.836;9.174;2023-04-15T15:08:14;12.30;99.90
48752;DHT22;34544;48.836;9.174;2023-04-15T15:10:40;12.20;99.90
48752;DHT22;34544;48.836;9.174;2023-04-15T15:13:07;12.20;99.90
48752;DHT22;34544;48.836;9.174;2023-04-15T15:15:35;12.10;99.90
48752;DHT22;34544;48.836;9.174;2023-04-15T15:18:01;12.00;99.90
48752;DHT22;34544;48.836;9.174;2023-04-15T15:20:27;12.00;99.90
48752;DHT22;34544;48.836;9.174;2023-04-15T15:22:53;11.90;99.90
48752;DHT22;34544;48.836;9.174;2023-04-15T15:25:19;11.80;99.90
48752;DHT22;34544;48.836;9.174;2023-04-15T15:27:44;11.80;99.90
48752;DHT22;34544;48.836;9.174;2023-04-15T15:30:11;11.80;99.90
48752;DHT22;34544;48.836;9.174;2023-04-15T15:32:40;11.70;99.90
48752;DHT22;34544;48.836;9.174;2023-04-15T15:35:07;11.70;99.90
48752;DHT22;34544;48.836;9.174;2023-04-15T15:37:34;11.70;99.90
48752;DHT22;34544;48.836;9.174;2023-04-15T15:40:01;11.70;99.90
48752;DHT22;34544;48.836;9.174;2023-04-15T15:42:30;11.70;99.90
48752;DHT22;34544;48.836;9.174;2023-04-15T15:44:56;11.70;99.90
48752;DHT22;34544;48.836;9.174;2023-04-15T15:47:22;11.80;99.90
48752;DHT22;34544;48.836;9.174;2023-04-15T15:49:47;11.80;99.90
48752;DHT22;34544;48.836;9.174;2023-04-15T15:52:13;11.80;99.90
48752;DHT22;34544;48.836;9.174;2023-04-15T15:54:40;11.80;99.90
48752;DHT22;34544;48.836;9.174;2023-04-15T15:57:06;11.80;99.90
48752;DHT22;34544;48.836;9.174;2023-04-15T15:59:32;11.80;99.90
48752;DHT22;34544;48.836;9.174;2023-04-15T16:01:59;11.80;99.90
48752;DHT22;34544;48.836;9.174;2023-04-15T16:04:25;11.70;99.90
48752;DHT22;34544;48.836;9.174;2023-04-15T16:06:52;11.60;99.90
48752;DHT22;34544;48.836;9.174;2023-04-15T16:09:17;11.50;99.90
48752;DHT22;34544;48.836;9.174;2023-04-15T16:11:44;11.40;99.90
48752;DHT22;34544;48.836;9.174;2023-04-15T16:14:10;11.30;99.90